sensor_id;sensor_type;location;lat;lon;timestamp;P1;durP1;ratioP1;P2;durP2;ratioP2
62915;SDS011;49010;51.230;-2.306;2023-02-15T00:00:47;34.33;;;19.55;;
62915;SDS011;49010;51.230;-2.306;2023-02-15T00:04:29;41.58;;;22.02;;
62915;SDS011;49010;51.230;-2.306;2023-02-15T00:08:27;40.17;;;20.45;;
62915;SDS011;49010;51.230;-2.306;2023-02-15T00:12:09;29.08;;;17.02;;
62915;SDS011;49010;51.230;-2.306;2023-02-15T00:15:51;30.02;;;18.33;;
62915;SDS011;49010;51.230;-2.306;2023-02-15T00:19:33;35.30;;;19.05;;
62915;SDS011;49010;51.230;-2.306;2023-02-15T00:23:15;35.67;;;20.77;;
62915;SDS011;49010;51.230;-2.306;2023-02-15T00:26:57;38.08;;;23.13;;
62915;SDS011;49010;51.230;-2.306;2023-02-15T00:30:38;38.42;;;22.83;;
62915;SDS011;49010;51.230;-2.306;2023-02-15T00:34:21;38.67;;;23.98;;
62915;SDS011;49010;51.230;-2.306;2023-02-15T00:38:05;39.00;;;22.20;;
62915;SDS011;49010;51.230;-2.306;2023-02-15T00:41:47;34.17;;;20.90;;
62915;SDS011;49010;51.230;-2.306;2023-02-15T00:45:29;45.72;;;24.90;;
62915;SDS011;49010;51.230;-2.306;2023-02-15T00:49:10;41.13;;;20.65;;
62915;SDS011;49010;51.230;-2.306;2023-02-15T00:52:52;43.78;;;21.35;;
62915;SDS011;49010;51.230;-2.306;2023-02-15T00:56:34;36.17;;;20.25;;
62915;SDS011;49010;51.230;-2.306;2023-02-15T01:00:16;37.95;;;22.17;;
62915;SDS011;49010;51.230;-2.306;2023-02-15T01:03:58;36.90;;;20.77;;
62915;SDS011;49010;51.230;-2.306;2023-02-15T01:07:40;41.00;;;21.58;;
62915;SDS011;49010;51.230;-2.306;2023-02-15T01:11:22;39.70;;;20.85;;
62915;SDS011;49010;51.230;-2.306;2023-02-15T01:15:04;37.55;;;22.55;;
62915;SDS011;49010;51.230;-2.306;2023-02-15T01:18:46;39.55;;;23.73;;
62915;SDS011;49010;51.230;-2.306;2023-02-15T01:22:28;41.67;;;21.98;;
62915;SDS011;49010;51.230;-2.306;2023-02-15T01:26:10;39.45;;;22.95;;
62915;SDS011;49010;51.230;-2.306;2023-02-15T01:29:52;43.13;;;20.33;;
62915;SDS011;49010;51.230;-2.306;2023-02-15T01:33:34;35.95;;;21.10;;
62915;SDS011;49010;51.230;-2.306;2023-02-15T01:37:17;41.85;;;20.77;;
62915;SDS011;49010;51.230;-2.306;2023-02-15T01:40:59;41.20;;;22.13;;
62915;SDS011;49010;51.230;-2.306;2023-02-15T01:45:02;39.70;;;21.33;;
62915;SDS011;49010;51.230;-2.306;2023-02-15T01:48:50;39.30;;;21.38;;
62915;SDS011;49010;51.230;-2.306;2023-02-15T01:52:44;43.25;;;25.05;;
62915;SDS011;49010;51.230;-2.306;2023-02-15T01:56:52;39.50;;;22.17;;
62915;SDS011;49010;51.230;-2.306;2023-02-15T02:00:36;44.25;;;22.83;;
62915;SDS011;49010;51.230;-2.306;2023-02-15T02:04:26;35.78;;;21.15;;
62915;SDS011;49010;51.230;-2.306;2023-02-15T02:08:18;34.30;;;20.45;;
62915;SDS011;49010;51.230;-2.306;2023-02-15T02:12:00;40.40;;;20.95;;
62915;SDS011;49010;51.230;-2.306;2023-02-15T02:16:48;36.55;;;21.25;;
62915;SDS011;49010;51.230;-2.306;2023-02-15T02:20:30;36.00;;;19.95;;
62915;SDS011;49010;51.230;-2.306;2023-02-15T02:24:37;37.38;;;20.85;;
62915;SDS011;49010;51.230;-2.306;2023-02-15T02:36:55;37.53;;;21.02;;
62915;SDS011;49010;51.230;-2.306;2023-02-15T02:40:50;38.78;;;19.27;;
62915;SDS011;49010;51.230;-2.306;2023-02-15T02:44:43;36.05;;;20.42;;
62915;SDS011;49010;51.230;-2.306;2023-02-15T02:48:29;35.58;;;19.20;;
62915;SDS011;49010;51.230;-2.306;2023-02-15T03:00:41;42.20;;;22.30;;
62915;SDS011;49010;51.230;-2.306;2023-02-15T03:04:27;46.90;;;23.58;;
62915;SDS011;49010;51.230;-2.306;2023-02-15T03:08:14;44.92;;;22.55;;
62915;SDS011;49010;51.230;-2.306;2023-02-15T03:12:03;41.45;;;22.95;;
62915;SDS011;49010;51.230;-2.306;2023-02-15T03:15:45;36.55;;;20.77;;
62915;SDS011;49010;51.230;-2.306;2023-02-15T03:19:47;36.95;;;19.75;;
62915;SDS011;49010;51.230;-2.306;2023-02-15T03:23:31;38.15;;;21.10;;
62915;SDS011;49010;51.230;-2.306;2023-02-15T03:27:16;39.65;;;22.63;;
62915;SDS011;49010;51.230;-2.306;2023-02-15T03:31:02;45.78;;;22.95;;
62915;SDS011;49010;51.230;-2.306;2023-02-15T03:34:46;39.78;;;21.55;;
62915;SDS011;49010;51.230;-2.306;2023-02-15T03:38:40;40.90;;;21.75;;
62915;SDS011;49010;51.230;-2.306;2023-02-15T03:42:31;43.88;;;22.77;;
62915;SDS011;49010;51.230;-2.306;2023-02-15T03:46:23;40.85;;;22.35;;
62915;SDS011;49010;51.230;-2.306;2023-02-15T03:54:17;44.10;;;23.60;;
62915;SDS011;49010;51.230;-2.306;2023-02-15T03:58:18;47.40;;;24.98;;
62915;SDS011;49010;51.230;-2.306;2023-02-15T04:02:22;44.30;;;24.50;;
62915;SDS011;49010;51.230;-2.306;2023-02-15T04:06:08;37.50;;;24.00;;
62915;SDS011;49010;51.230;-2.306;2023-02-15T04:09:50;38.08;;;21.40;;
62915;SDS011;49010;51.230;-2.306;2023-02-15T04:13:50;40.20;;;21.55;;
62915;SDS011;49010;51.230;-2.306;2023-02-15T04:17:37;45.83;;;24.27;;
62915;SDS011;49010;51.230;-2.306;2023-02-15T04:21:19;52.50;;;26.25;;
62915;SDS011;49010;51.230;-2.306;2023-02-15T04:25:21;51.92;;;25.95;;
62915;SDS011;49010;51.230;-2.306;2023-02-15T04:29:03;53.88;;;25.98;;
62915;SDS011;49010;51.230;-2.306;2023-02-15T04:32:45;43.85;;;25.38;;
62915;SDS011;49010;51.230;-2.306;2023-02-15T04:36:27;46.65;;;25.88;;
62915;SDS011;49010;51.230;-2.306;2023-02-15T04:40:10;43.53;;;25.30;;
62915;SDS011;49010;51.230;-2.306;2023-02-15T04:43:54;46.22;;;22.65;;
62915;SDS011;49010;51.230;-2.306;2023-02-15T04:47:36;50.63;;;27.83;;
62915;SDS011;49010;51.230;-2.306;2023-02-15T04:51:18;44.35;;;23.55;;
62915;SDS011;49010;51.230;-2.306;2023-02-15T04:55:00;40.15;;;21.20;;
62915;SDS011;49010;51.230;-2.306;2023-02-15T04:58:42;42.15;;;23.83;;
62915;SDS011;49010;51.230;-2.306;2023-02-15T05:02:24;40.70;;;21.30;;
62915;SDS011;49010;51.230;-2.306;2023-02-15T05:06:05;46.75;;;23.52;;
62915;SDS011;49010;51.230;-2.306;2023-02-15T05:09:47;42.28;;;22.85;;
62915;SDS011;49010;51.230;-2.306;2023-02-15T05:13:29;40.58;;;22.65;;
62915;SDS011;49010;51.230;-2.306;2023-02-15T05:17:11;43.22;;;24.27;;
62915;SDS011;49010;51.230;-2.306;2023-02-15T05:20:52;52.20;;;27.80;;
62915;SDS011;49010;51.230;-2.306;2023-02-15T05:24:34;54.35;;;28.35;;
62915;SDS011;49010;51.230;-2.306;2023-02-15T05:28:35;53.25;;;27.90;;
62915;SDS011;49010;51.230;-2.306;2023-02-15T05:32:18;45.75;;;25.63;;
62915;SDS011;49010;51.230;-2.306;2023-02-15T05:36:00;52.33;;;26.38;;
62915;SDS011;49010;51.230;-2.306;2023-02-15T05:39:43;52.42;;;26.92;;
62915;SDS011;49010;51.230;-2.306;2023-02-15T05:43:25;46.33;;;25.23;;
62915;SDS011;49010;51.230;-2.306;2023-02-15T05:47:07;49.15;;;27.40;;
62915;SDS011;49010;51.230;-2.306;2023-02-15T05:51:03;50.05;;;24.80;;
62915;SDS011;49010;51.230;-2.306;2023-02-15T05:54:50;50.72;;;25.13;;
62915;SDS011;49010;51.230;-2.306;2023-02-15T05:58:33;48.05;;;26.38;;
62915;SDS011;49010;51.230;-2.306;2023-02-15T06:02:20;50.30;;;25.80;;
62915;SDS011;49010;51.230;-2.306;2023-02-15T06:06:02;51.85;;;25.40;;
62915;SDS011;49010;51.230;-2.306;2023-02-15T06:09:45;50.28;;;25.05;;
62915;SDS011;49010;51.230;-2.306;2023-02-15T06:13:27;51.60;;;26.52;;
62915;SDS011;49010;51.230;-2.306;2023-02-15T06:17:09;52.67;;;26.10;;
62915;SDS011;49010;51.230;-2.306;2023-02-15T06:20:51;50.75;;;26.50;;
62915;SDS011;49010;51.230;-2.306;2023-02-15T06:24:33;56.80;;;28.83;;
62915;SDS011;49010;51.230;-2.306;2023-02-15T06:28:15;56.38;;;29.65;;
62915;SDS011;49010;51.230;-2.306;2023-02-15T06:31:56;48.33;;;26.42;;
62915;SDS011;49010;51.230;-2.306;2023-02-15T06:35:38;52.08;;;27.17;;
62915;SDS011;49010;51.230;-2.306;2023-02-15T06:39:20;49.67;;;26.73;;
62915;SDS011;49010;51.230;-2.306;2023-02-15T06:43:02;58.47;;;28.58;;
62915;SDS011;49010;51.230;-2.306;2023-02-15T06:46:44;49.60;;;26.05;;
62915;SDS011;49010;51.230;-2.306;2023-02-15T06:50:25;49.42;;;27.15;;
62915;SDS011;49010;51.230;-2.306;2023-02-15T06:54:07;52.95;;;27.13;;
62915;SDS011;49010;51.230;-2.306;2023-02-15T06:57:49;50.60;;;28.10;;
62915;SDS011;49010;51.230;-2.306;2023-02-15T07:01:31;57.83;;;27.40;;
62915;SDS011;49010;51.230;-2.306;2023-02-15T07:05:13;51.33;;;27.05;;
62915;SDS011;49010;51.230;-2.306;2023-02-15T07:08:55;53.40;;;27.58;;
62915;SDS011;49010;51.230;-2.306;2023-02-15T07:12:36;51.20;;;25.58;;
62915;SDS011;49010;51.230;-2.306;2023-02-15T07:16:25;49.85;;;26.48;;
62915;SDS011;49010;51.230;-2.306;2023-02-15T07:20:11;52.40;;;25.60;;
62915;SDS011;49010;51.230;-2.306;2023-02-15T07:23:56;49.15;;;26.65;;
62915;SDS011;49010;51.230;-2.306;2023-02-15T07:27:39;51.42;;;26.45;;
62915;SDS011;49010;51.230;-2.306;2023-02-15T07:31:21;52.70;;;26.80;;
62915;SDS011;49010;51.230;-2.306;2023-02-15T07:35:03;50.42;;;26.65;;
62915;SDS011;49010;51.230;-2.306;2023-02-15T07:38:45;45.28;;;25.95;;
62915;SDS011;49010;51.230;-2.306;2023-02-15T07:42:27;48.05;;;26.83;;
62915;SDS011;49010;51.230;-2.306;2023-02-15T07:46:10;46.65;;;25.20;;
62915;SDS011;49010;51.230;-2.306;2023-02-15T07:49:53;47.95;;;26.42;;
62915;SDS011;49010;51.230;-2.306;2023-02-15T07:53:35;46.38;;;25.08;;
62915;SDS011;49010;51.230;-2.306;2023-02-15T07:57:18;53.67;;;26.55;;
62915;SDS011;49010;51.230;-2.306;2023-02-15T08:01:00;47.72;;;26.17;;
62915;SDS011;49010;51.230;-2.306;2023-02-15T08:04:45;46.58;;;25.52;;
62915;SDS011;49010;51.230;-2.306;2023-02-15T08:08:27;48.22;;;25.30;;
62915;SDS011;49010;51.230;-2.306;2023-02-15T08:12:11;49.80;;;24.42;;
62915;SDS011;49010;51.230;-2.306;2023-02-15T08:15:53;49.45;;;25.25;;
62915;SDS011;49010;51.230;-2.306;2023-02-15T08:19:35;45.60;;;23.88;;
62915;SDS011;49010;51.230;-2.306;2023-02-15T08:23:17;47.42;;;23.02;;
62915;SDS011;49010;51.230;-2.306;2023-02-15T08:26:58;47.35;;;24.50;;
62915;SDS011;49010;51.230;-2.306;2023-02-15T08:30:46;48.38;;;25.15;;
62915;SDS011;49010;51.230;-2.306;2023-02-15T08:34:29;49.10;;;24.50;;
62915;SDS011;49010;51.230;-2.306;2023-02-15T08:38:12;47.10;;;24.98;;
62915;SDS011;49010;51.230;-2.306;2023-02-15T08:41:54;43.33;;;23.75;;
62915;SDS011;49010;51.230;-2.306;2023-02-15T08:45:36;50.67;;;25.50;;
62915;SDS011;49010;51.230;-2.306;2023-02-15T08:49:18;55.50;;;24.77;;
62915;SDS011;49010;51.230;-2.306;2023-02-15T08:53:02;46.03;;;24.98;;
62915;SDS011;49010;51.230;-2.306;2023-02-15T08:56:45;60.47;;;29.48;;
62915;SDS011;49010;51.230;-2.306;2023-02-15T09:00:27;52.88;;;27.88;;
62915;SDS011;49010;51.230;-2.306;2023-02-15T09:04:10;48.45;;;26.85;;
62915;SDS011;49010;51.230;-2.306;2023-02-15T09:07:51;53.13;;;27.10;;
62915;SDS011;49010;51.230;-2.306;2023-02-15T09:11:34;41.50;;;23.60;;
62915;SDS011;49010;51.230;-2.306;2023-02-15T09:15:18;45.17;;;22.00;;
62915;SDS011;49010;51.230;-2.306;2023-02-15T09:19:00;37.92;;;21.45;;
62915;SDS011;49010;51.230;-2.306;2023-02-15T09:22:42;38.30;;;20.17;;
62915;SDS011;49010;51.230;-2.306;2023-02-15T09:26:25;32.10;;;17.75;;
62915;SDS011;49010;51.230;-2.306;2023-02-15T09:30:07;35.30;;;18.83;;
62915;SDS011;49010;51.230;-2.306;2023-02-15T09:33:49;24.67;;;15.55;;
62915;SDS011;49010;51.230;-2.306;2023-02-15T09:37:31;31.38;;;15.82;;
62915;SDS011;49010;51.230;-2.306;2023-02-15T09:49:18;28.95;;;18.70;;
62915;SDS011;49010;51.230;-2.306;2023-02-15T10:13:42;18.92;;;13.68;;
62915;SDS011;49010;51.230;-2.306;2023-02-15T10:21:27;25.02;;;13.05;;
62915;SDS011;49010;51.230;-2.306;2023-02-15T10:33:55;21.67;;;12.77;;
62915;SDS011;49010;51.230;-2.306;2023-02-15T10:45:07;22.63;;;13.15;;
62915;SDS011;49010;51.230;-2.306;2023-02-15T11:00:41;14.20;;;8.15;;
62915;SDS011;49010;51.230;-2.306;2023-02-15T11:08:29;19.15;;;8.30;;
62915;SDS011;49010;51.230;-2.306;2023-02-15T11:16:02;13.90;;;8.75;;
62915;SDS011;49010;51.230;-2.306;2023-02-15T11:19:58;13.48;;;8.27;;
62915;SDS011;49010;51.230;-2.306;2023-02-15T11:23:58;13.00;;;8.40;;
62915;SDS011;49010;51.230;-2.306;2023-02-15T11:27:42;14.98;;;8.98;;
62915;SDS011;49010;51.230;-2.306;2023-02-15T11:31:30;13.70;;;8.32;;
62915;SDS011;49010;51.230;-2.306;2023-02-15T11:35:58;13.55;;;7.85;;
62915;SDS011;49010;51.230;-2.306;2023-02-15T11:39:51;13.63;;;7.50;;
62915;SDS011;49010;51.230;-2.306;2023-02-15T11:43:37;13.00;;;7.97;;
62915;SDS011;49010;51.230;-2.306;2023-02-15T11:47:20;13.40;;;7.03;;
62915;SDS011;49010;51.230;-2.306;2023-02-15T11:51:02;14.60;;;8.00;;
62915;SDS011;49010;51.230;-2.306;2023-02-15T11:54:46;12.95;;;7.70;;
62915;SDS011;49010;51.230;-2.306;2023-02-15T12:02:22;11.93;;;6.93;;
62915;SDS011;49010;51.230;-2.306;2023-02-15T12:06:04;13.48;;;7.45;;
62915;SDS011;49010;51.230;-2.306;2023-02-15T12:14:10;16.08;;;7.85;;
62915;SDS011;49010;51.230;-2.306;2023-02-15T12:17:53;11.77;;;7.38;;
62915;SDS011;49010;51.230;-2.306;2023-02-15T12:21:39;16.58;;;8.02;;
62915;SDS011;49010;51.230;-2.306;2023-02-15T12:29:16;13.23;;;6.80;;
62915;SDS011;49010;51.230;-2.306;2023-02-15T12:37:00;12.85;;;8.15;;
62915;SDS011;49010;51.230;-2.306;2023-02-15T12:40:59;11.88;;;7.07;;
62915;SDS011;49010;51.230;-2.306;2023-02-15T12:44:53;12.02;;;6.88;;
62915;SDS011;49010;51.230;-2.306;2023-02-15T12:48:40;11.60;;;7.03;;
62915;SDS011;49010;51.230;-2.306;2023-02-15T12:52:23;10.55;;;6.68;;
62915;SDS011;49010;51.230;-2.306;2023-02-15T12:56:07;12.75;;;7.57;;
62915;SDS011;49010;51.230;-2.306;2023-02-15T12:59:50;10.32;;;7.25;;
62915;SDS011;49010;51.230;-2.306;2023-02-15T13:07:33;12.82;;;6.28;;
62915;SDS011;49010;51.230;-2.306;2023-02-15T13:11:24;12.30;;;6.97;;
62915;SDS011;49010;51.230;-2.306;2023-02-15T13:15:25;12.65;;;6.85;;
62915;SDS011;49010;51.230;-2.306;2023-02-15T13:19:19;9.43;;;6.13;;
62915;SDS011;49010;51.230;-2.306;2023-02-15T13:23:27;12.93;;;7.03;;
62915;SDS011;49010;51.230;-2.306;2023-02-15T13:27:12;16.90;;;6.90;;
62915;SDS011;49010;51.230;-2.306;2023-02-15T13:30:58;16.23;;;6.43;;
62915;SDS011;49010;51.230;-2.306;2023-02-15T13:34:40;13.15;;;6.70;;
62915;SDS011;49010;51.230;-2.306;2023-02-15T13:42:20;12.32;;;6.78;;
62915;SDS011;49010;51.230;-2.306;2023-02-15T13:46:19;12.63;;;6.25;;
62915;SDS011;49010;51.230;-2.306;2023-02-15T13:58:50;11.35;;;6.53;;
62915;SDS011;49010;51.230;-2.306;2023-02-15T14:07:02;13.80;;;6.40;;
62915;SDS011;49010;51.230;-2.306;2023-02-15T14:11:32;11.23;;;6.47;;
62915;SDS011;49010;51.230;-2.306;2023-02-15T14:31:35;17.70;;;7.65;;
62915;SDS011;49010;51.230;-2.306;2023-02-15T14:35:24;12.05;;;6.22;;
62915;SDS011;49010;51.230;-2.306;2023-02-15T14:55:36;12.88;;;5.88;;
62915;SDS011;49010;51.230;-2.306;2023-02-15T15:03:10;13.20;;;5.72;;
62915;SDS011;49010;51.230;-2.306;2023-02-15T15:07:07;13.10;;;6.07;;
62915;SDS011;49010;51.230;-2.306;2023-02-15T15:10:53;20.38;;;6.70;;
62915;SDS011;49010;51.230;-2.306;2023-02-15T15:22:28;15.32;;;6.05;;
62915;SDS011;49010;51.230;-2.306;2023-02-15T15:41:56;14.80;;;7.35;;
62915;SDS011;49010;51.230;-2.306;2023-02-15T15:45:54;16.20;;;7.57;;
62915;SDS011;49010;51.230;-2.306;2023-02-15T15:49:45;18.25;;;7.78;;
62915;SDS011;49010;51.230;-2.306;2023-02-15T15:53:27;23.33;;;7.93;;
62915;SDS011;49010;51.230;-2.306;2023-02-15T15:57:21;16.73;;;6.88;;
62915;SDS011;49010;51.230;-2.306;2023-02-15T16:01:06;14.95;;;6.63;;
62915;SDS011;49010;51.230;-2.306;2023-02-15T16:04:52;20.10;;;8.77;;
62915;SDS011;49010;51.230;-2.306;2023-02-15T16:08:36;17.83;;;7.55;;
62915;SDS011;49010;51.230;-2.306;2023-02-15T16:12:19;12.77;;;5.78;;
62915;SDS011;49010;51.230;-2.306;2023-02-15T16:16:04;7.68;;;2.92;;
62915;SDS011;49010;51.230;-2.306;2023-02-15T16:19:47;4.32;;;2.03;;
62915;SDS011;49010;51.230;-2.306;2023-02-15T16:31:15;1.33;;;0.73;;
62915;SDS011;49010;51.230;-2.306;2023-02-15T16:34:59;1.35;;;0.73;;
62915;SDS011;49010;51.230;-2.306;2023-02-15T16:42:24;2.03;;;0.68;;
62915;SDS011;49010;51.230;-2.306;2023-02-15T16:46:23;1.38;;;0.50;;
62915;SDS011;49010;51.230;-2.306;2023-02-15T16:50:20;2.08;;;0.90;;
62915;SDS011;49010;51.230;-2.306;2023-02-15T16:54:07;2.88;;;1.00;;
62915;SDS011;49010;51.230;-2.306;2023-02-15T16:57:55;4.72;;;1.15;;
62915;SDS011;49010;51.230;-2.306;2023-02-15T17:01:41;2.05;;;1.05;;
62915;SDS011;49010;51.230;-2.306;2023-02-15T17:05:45;1.98;;;1.00;;
62915;SDS011;49010;51.230;-2.306;2023-02-15T17:09:32;3.17;;;0.98;;
62915;SDS011;49010;51.230;-2.306;2023-02-15T17:13:15;2.90;;;1.08;;
62915;SDS011;49010;51.230;-2.306;2023-02-15T17:17:02;4.07;;;1.60;;
62915;SDS011;49010;51.230;-2.306;2023-02-15T17:20:50;1.77;;;1.17;;
62915;SDS011;49010;51.230;-2.306;2023-02-15T17:24:42;3.22;;;1.25;;
62915;SDS011;49010;51.230;-2.306;2023-02-15T17:28:27;0.70;;;0.55;;
62915;SDS011;49010;51.230;-2.306;2023-02-15T17:32:30;1.63;;;1.10;;
62915;SDS011;49010;51.230;-2.306;2023-02-15T17:36:17;1.67;;;1.35;;
62915;SDS011;49010;51.230;-2.306;2023-02-15T17:44:06;4.07;;;2.30;;
62915;SDS011;49010;51.230;-2.306;2023-02-15T17:47:52;3.75;;;2.20;;
62915;SDS011;49010;51.230;-2.306;2023-02-15T17:51:34;2.75;;;1.58;;
62915;SDS011;49010;51.230;-2.306;2023-02-15T17:55:17;3.35;;;1.50;;
62915;SDS011;49010;51.230;-2.306;2023-02-15T17:59:15;3.17;;;1.40;;
62915;SDS011;49010;51.230;-2.306;2023-02-15T18:02:57;3.33;;;1.25;;
62915;SDS011;49010;51.230;-2.306;2023-02-15T18:06:58;1.52;;;1.00;;
62915;SDS011;49010;51.230;-2.306;2023-02-15T18:10:59;3.85;;;1.20;;
62915;SDS011;49010;51.230;-2.306;2023-02-15T18:15:00;2.25;;;1.42;;
62915;SDS011;49010;51.230;-2.306;2023-02-15T18:18:43;2.35;;;1.40;;
62915;SDS011;49010;51.230;-2.306;2023-02-15T18:22:26;1.60;;;1.27;;
62915;SDS011;49010;51.230;-2.306;2023-02-15T18:26:11;2.75;;;1.02;;
62915;SDS011;49010;51.230;-2.306;2023-02-15T18:30:01;3.17;;;1.40;;
62915;SDS011;49010;51.230;-2.306;2023-02-15T18:37:33;4.45;;;1.58;;
62915;SDS011;49010;51.230;-2.306;2023-02-15T18:41:16;2.30;;;1.52;;
62915;SDS011;49010;51.230;-2.306;2023-02-15T18:48:56;4.80;;;2.83;;
62915;SDS011;49010;51.230;-2.306;2023-02-15T18:52:39;6.05;;;2.70;;
62915;SDS011;49010;51.230;-2.306;2023-02-15T18:56:23;4.07;;;2.40;;
62915;SDS011;49010;51.230;-2.306;2023-02-15T19:00:05;4.25;;;2.33;;
62915;SDS011;49010;51.230;-2.306;2023-02-15T19:03:54;4.05;;;1.90;;
62915;SDS011;49010;51.230;-2.306;2023-02-15T19:07:36;4.70;;;1.85;;
62915;SDS011;49010;51.230;-2.306;2023-02-15T19:11:21;4.90;;;1.52;;
62915;SDS011;49010;51.230;-2.306;2023-02-15T19:15:18;3.75;;;1.88;;
62915;SDS011;49010;51.230;-2.306;2023-02-15T19:19:05;5.75;;;2.38;;
62915;SDS011;49010;51.230;-2.306;2023-02-15T19:22:48;4.50;;;1.95;;
62915;SDS011;49010;51.230;-2.306;2023-02-15T19:26:32;3.55;;;1.70;;
62915;SDS011;49010;51.230;-2.306;2023-02-15T19:30:29;2.80;;;1.85;;
62915;SDS011;49010;51.230;-2.306;2023-02-15T19:34:14;2.88;;;1.95;;
62915;SDS011;49010;51.230;-2.306;2023-02-15T19:37:59;3.53;;;1.98;;
62915;SDS011;49010;51.230;-2.306;2023-02-15T19:41:43;5.35;;;2.08;;
62915;SDS011;49010;51.230;-2.306;2023-02-15T19:45:26;3.00;;;1.90;;
62915;SDS011;49010;51.230;-2.306;2023-02-15T19:49:11;3.15;;;1.92;;
62915;SDS011;49010;51.230;-2.306;2023-02-15T19:52:53;5.38;;;2.45;;
62915;SDS011;49010;51.230;-2.306;2023-02-15T19:56:35;3.83;;;2.35;;
62915;SDS011;49010;51.230;-2.306;2023-02-15T20:00:18;5.35;;;2.50;;
62915;SDS011;49010;51.230;-2.306;2023-02-15T20:04:07;4.97;;;2.70;;
62915;SDS011;49010;51.230;-2.306;2023-02-15T20:11:38;5.30;;;3.33;;
62915;SDS011;49010;51.230;-2.306;2023-02-15T20:15:22;3.95;;;2.97;;
62915;SDS011;49010;51.230;-2.306;2023-02-15T20:19:05;3.58;;;2.85;;
62915;SDS011;49010;51.230;-2.306;2023-02-15T20:22:49;4.93;;;3.08;;
62915;SDS011;49010;51.230;-2.306;2023-02-15T20:26:32;7.35;;;4.43;;
62915;SDS011;49010;51.230;-2.306;2023-02-15T20:30:19;8.80;;;5.07;;
62915;SDS011;49010;51.230;-2.306;2023-02-15T20:34:03;6.97;;;4.70;;
62915;SDS011;49010;51.230;-2.306;2023-02-15T20:37:47;9.13;;;5.07;;
62915;SDS011;49010;51.230;-2.306;2023-02-15T20:41:33;10.10;;;5.22;;
62915;SDS011;49010;51.230;-2.306;2023-02-15T20:45:24;6.88;;;5.07;;
62915;SDS011;49010;51.230;-2.306;2023-02-15T20:49:08;6.90;;;4.72;;
62915;SDS011;49010;51.230;-2.306;2023-02-15T20:52:52;7.85;;;5.25;;
62915;SDS011;49010;51.230;-2.306;2023-02-15T20:56:36;10.77;;;5.93;;
62915;SDS011;49010;51.230;-2.306;2023-02-15T21:00:21;9.93;;;5.47;;
62915;SDS011;49010;51.230;-2.306;2023-02-15T21:04:07;9.20;;;5.57;;
62915;SDS011;49010;51.230;-2.306;2023-02-15T21:07:55;8.20;;;5.38;;
62915;SDS011;49010;51.230;-2.306;2023-02-15T21:11:39;11.10;;;6.35;;
62915;SDS011;49010;51.230;-2.306;2023-02-15T21:15:27;8.27;;;4.72;;
62915;SDS011;49010;51.230;-2.306;2023-02-15T21:19:14;8.65;;;5.25;;
62915;SDS011;49010;51.230;-2.306;2023-02-15T21:23:00;12.75;;;6.75;;
62915;SDS011;49010;51.230;-2.306;2023-02-15T21:26:45;9.75;;;5.30;;
62915;SDS011;49010;51.230;-2.306;2023-02-15T21:30:28;10.55;;;6.18;;
62915;SDS011;49010;51.230;-2.306;2023-02-15T21:34:10;8.38;;;5.15;;
62915;SDS011;49010;51.230;-2.306;2023-02-15T21:37:52;8.90;;;5.18;;
62915;SDS011;49010;51.230;-2.306;2023-02-15T21:41:35;9.02;;;5.05;;
62915;SDS011;49010;51.230;-2.306;2023-02-15T21:45:36;7.93;;;4.20;;
62915;SDS011;49010;51.230;-2.306;2023-02-15T21:49:38;8.05;;;4.50;;
62915;SDS011;49010;51.230;-2.306;2023-02-15T21:53:33;8.15;;;4.53;;
62915;SDS011;49010;51.230;-2.306;2023-02-15T21:57:21;8.38;;;4.63;;
62915;SDS011;49010;51.230;-2.306;2023-02-15T22:01:03;6.07;;;3.67;;
62915;SDS011;49010;51.230;-2.306;2023-02-15T22:04:46;6.88;;;3.80;;
62915;SDS011;49010;51.230;-2.306;2023-02-15T22:08:28;9.63;;;4.47;;
62915;SDS011;49010;51.230;-2.306;2023-02-15T22:12:14;6.20;;;3.40;;
62915;SDS011;49010;51.230;-2.306;2023-02-15T22:15:57;6.72;;;4.20;;
62915;SDS011;49010;51.230;-2.306;2023-02-15T22:19:39;5.57;;;3.80;;
62915;SDS011;49010;51.230;-2.306;2023-02-15T22:23:22;6.32;;;4.00;;
62915;SDS011;49010;51.230;-2.306;2023-02-15T22:27:04;6.82;;;4.40;;
62915;SDS011;49010;51.230;-2.306;2023-02-15T22:30:47;5.75;;;4.00;;
62915;SDS011;49010;51.230;-2.306;2023-02-15T22:34:30;5.80;;;4.20;;
62915;SDS011;49010;51.230;-2.306;2023-02-15T22:38:12;7.30;;;4.10;;
62915;SDS011;49010;51.230;-2.306;2023-02-15T22:41:54;6.05;;;4.22;;
62915;SDS011;49010;51.230;-2.306;2023-02-15T22:45:36;7.00;;;4.03;;
62915;SDS011;49010;51.230;-2.306;2023-02-15T22:49:18;8.90;;;4.35;;
62915;SDS011;49010;51.230;-2.306;2023-02-15T22:53:00;7.78;;;4.90;;
62915;SDS011;49010;51.230;-2.306;2023-02-15T23:00:34;8.80;;;4.65;;
62915;SDS011;49010;51.230;-2.306;2023-02-15T23:04:21;6.75;;;4.63;;
62915;SDS011;49010;51.230;-2.306;2023-02-15T23:08:05;6.47;;;4.13;;
62915;SDS011;49010;51.230;-2.306;2023-02-15T23:11:47;7.60;;;4.53;;
62915;SDS011;49010;51.230;-2.306;2023-02-15T23:15:30;6.95;;;4.57;;
62915;SDS011;49010;51.230;-2.306;2023-02-15T23:19:11;7.22;;;5.05;;
62915;SDS011;49010;51.230;-2.306;2023-02-15T23:22:55;6.70;;;4.40;;
62915;SDS011;49010;51.230;-2.306;2023-02-15T23:26:37;9.07;;;5.00;;
62915;SDS011;49010;51.230;-2.306;2023-02-15T23:30:19;7.03;;;4.43;;
62915;SDS011;49010;51.230;-2.306;2023-02-15T23:34:01;7.50;;;4.70;;
62915;SDS011;49010;51.230;-2.306;2023-02-15T23:37:53;7.45;;;5.05;;
62915;SDS011;49010;51.230;-2.306;2023-02-15T23:41:35;9.85;;;4.43;;
62915;SDS011;49010;51.230;-2.306;2023-02-15T23:45:20;6.07;;;4.13;;
62915;SDS011;49010;51.230;-2.306;2023-02-15T23:49:03;8.07;;;4.93;;
62915;SDS011;49010;51.230;-2.306;2023-02-15T23:52:55;7.22;;;4.50;;
62915;SDS011;49010;51.230;-2.306;2023-02-15T23:56:37;6.05;;;3.92;;
